createdAt,value
2017-05-20T00:00:13.668Z,52.01
2017-05-20T00:01:23.623Z,52.31
2017-05-20T00:02:33.263Z,52.31
2017-05-20T00:03:43.225Z,52.5
2017-05-20T00:04:53.188Z,52.69
2017-05-20T00:06:03.458Z,52.69
2017-05-20T00:07:13.720Z,52.53
2017-05-20T00:08:23.671Z,52.43
2017-05-20T00:09:33.939Z,52.72
2017-05-20T00:10:44.209Z,52.69
2017-05-20T00:11:53.541Z,52.14
2017-05-20T00:13:02.867Z,52.4
2017-05-20T00:14:12.505Z,52.53
2017-05-20T00:15:22.140Z,52.43
2017-05-20T00:16:31.457Z,52.43
2017-05-20T00:17:41.407Z,52.4
2017-05-20T00:18:51.365Z,52.4
2017-05-20T00:20:01.016Z,52.21
2017-05-20T00:21:10.981Z,52.4
2017-05-20T00:22:20.619Z,52.31
2017-05-20T00:23:30.568Z,52.4
2017-05-20T00:24:40.840Z,52.4
2017-05-20T00:25:50.799Z,52.5
2017-05-20T00:27:00.760Z,52.4
2017-05-20T00:28:10.709Z,52.5
2017-05-20T00:29:20.040Z,52.01
2017-05-20T00:30:29.684Z,52.11
2017-05-20T00:31:39.636Z,52.59
2017-05-20T00:32:49.603Z,51.73
2017-05-20T00:33:59.567Z,52.11
2017-05-20T00:35:09.516Z,51.92
2017-05-20T00:36:19.466Z,52.01
2017-05-20T00:37:29.730Z,51.73
2017-05-20T00:38:40.003Z,52.01
2017-05-20T00:39:50.274Z,51.82
2017-05-20T00:40:59.913Z,52.21
2017-05-20T00:42:09.872Z,51.92
2017-05-20T00:43:19.823Z,51.82
2017-05-20T00:44:29.463Z,51.73
2017-05-20T00:45:39.416Z,52.01
2017-05-20T00:46:49.372Z,51.63
2017-05-20T00:47:59.013Z,51.63
2017-05-20T00:49:08.656Z,51.92
2017-05-20T00:50:18.611Z,51.63
2017-05-20T00:51:28.874Z,51.92
2017-05-20T00:52:38.518Z,51.73
2017-05-20T00:53:48.794Z,51.92
2017-05-20T00:54:59.060Z,51.73
2017-05-20T00:56:09.329Z,51.53
2017-05-20T00:57:19.283Z,51.73
2017-05-20T00:58:29.551Z,51.73
2017-05-20T00:59:39.849Z,51.82
2017-05-20T01:00:50.124Z,51.44
2017-05-20T01:01:59.439Z,51.53
2017-05-20T01:03:09.709Z,51.63
2017-05-20T01:04:19.665Z,51.73
2017-05-20T01:05:29.935Z,51.63
2017-05-20T01:06:39.890Z,51.73
2017-05-20T01:07:49.844Z,51.73
2017-05-20T01:08:59.807Z,51.63
2017-05-20T01:10:09.759Z,51.73
2017-05-20T01:11:19.082Z,51.63
2017-05-20T01:12:29.043Z,51.63
2017-05-20T01:13:38.997Z,51.63
2017-05-20T01:14:48.322Z,51.53
2017-05-20T01:15:58.279Z,51.73
2017-05-20T01:17:07.919Z,51.53
2017-05-20T01:18:17.553Z,51.25
2017-05-20T01:19:27.524Z,51.53
2017-05-20T01:20:36.848Z,51.44
2017-05-20T01:21:47.114Z,51.82
2017-05-20T01:22:57.380Z,51.25
2017-05-20T01:24:07.025Z,51.25
2017-05-20T01:25:16.669Z,51.44
2017-05-20T01:26:25.993Z,51.63
2017-05-20T01:27:36.253Z,51.53
2017-05-20T01:28:45.896Z,51.25
2017-05-20T01:29:56.171Z,51.15
2017-05-20T01:31:06.435Z,51.44
2017-05-20T01:32:16.384Z,51.34
2017-05-20T01:33:26.339Z,51.53
2017-05-20T01:34:36.296Z,51.63
2017-05-20T01:35:46.257Z,51.25
2017-05-20T01:36:56.212Z,51.34
2017-05-20T01:38:05.532Z,51.34
2017-05-20T01:39:15.797Z,51.34
2017-05-20T01:40:26.071Z,50.96
2017-05-20T01:41:36.338Z,51.25
2017-05-20T01:42:46.033Z,50.76
2017-05-20T01:43:55.669Z,50.96
2017-05-20T01:45:05.306Z,51.15
2017-05-20T01:46:14.938Z,50.96
2017-05-20T01:47:25.204Z,51.05
2017-05-20T01:48:35.163Z,51.05
2017-05-20T01:49:44.808Z,51.25
2017-05-20T01:50:54.450Z,51.34
2017-05-20T01:52:04.081Z,51.15
2017-05-20T01:53:13.719Z,50.86
2017-05-20T01:54:23.043Z,50.57
2017-05-20T01:55:32.378Z,50.96
2017-05-20T01:56:42.643Z,50.86
2017-05-20T01:57:52.289Z,50.86
2017-05-20T01:59:01.929Z,50.57
2017-05-20T02:00:11.879Z,50.67
2017-05-20T02:01:22.157Z,50.67
2017-05-20T02:02:32.426Z,50.67
2017-05-20T02:03:42.380Z,50.86
2017-05-20T02:04:52.032Z,50.96
2017-05-20T02:06:02.304Z,50.76
2017-05-20T02:07:11.938Z,50.96
2017-05-20T02:08:22.210Z,50.57
2017-05-20T02:09:32.167Z,50.86
2017-05-20T02:10:41.809Z,50.76
2017-05-20T02:11:52.080Z,50.86
2017-05-20T02:13:02.345Z,50.57
2017-05-20T02:14:11.981Z,50.38
2017-05-20T02:15:21.935Z,50.38
2017-05-20T02:16:31.262Z,50.96
2017-05-20T02:17:41.223Z,50.96
2017-05-20T02:18:50.925Z,50.96
2017-05-20T02:20:01.192Z,50.96
2017-05-20T02:21:11.458Z,50.96
2017-05-20T02:22:20.776Z,50.96
2017-05-20T02:23:30.449Z,50.96
2017-05-20T02:24:40.155Z,50.76
2017-05-20T02:25:49.896Z,51.05
2017-05-20T02:26:59.539Z,50.47
2017-05-20T02:28:09.172Z,50.96
2017-05-20T02:29:18.183Z,50.96
2017-05-20T02:30:27.824Z,50.57
2017-05-20T02:31:37.779Z,50.96
2017-05-20T02:32:47.423Z,50.47
2017-05-20T02:33:56.754Z,50.76
2017-05-20T02:35:07.017Z,50.57
2017-05-20T02:36:16.963Z,50.57
2017-05-20T02:37:26.917Z,50.67
2017-05-20T02:38:37.188Z,50.67
2017-05-20T02:39:46.831Z,50.86
2017-05-20T02:40:56.470Z,50.96
2017-05-20T02:42:06.424Z,50.47
2017-05-20T02:43:16.711Z,50.57
2017-05-20T02:44:26.984Z,50.18
2017-05-20T02:45:36.938Z,50.47
2017-05-20T02:46:47.210Z,50.18
2017-05-20T02:47:57.478Z,50.47
2017-05-20T02:49:07.436Z,50.38
2017-05-20T02:50:17.395Z,50.28
2017-05-20T02:51:27.657Z,50.38
2017-05-20T02:52:37.614Z,50.38
2017-05-20T02:53:47.573Z,50.57
2017-05-20T02:54:57.846Z,50.76
2017-05-20T02:56:07.802Z,49.99
2017-05-20T02:57:17.756Z,50.28
2017-05-20T02:58:27.722Z,50.28
2017-05-20T02:59:37.675Z,50.18
2017-05-20T03:00:47.313Z,50.18
2017-05-20T03:01:57.579Z,50.18
2017-05-20T03:03:07.534Z,50.09
2017-05-20T03:04:17.483Z,50.28
2017-05-20T03:05:27.130Z,50.18
2017-05-20T03:06:37.083Z,50.28
2017-05-20T03:07:47.037Z,50.09
2017-05-20T03:08:57.001Z,50.09
2017-05-20T03:10:06.639Z,50.38
2017-05-20T03:11:16.588Z,50.28
2017-05-20T03:12:26.859Z,50.09
2017-05-20T03:13:37.123Z,49.8
2017-05-20T03:14:47.391Z,49.32
2017-05-20T03:15:57.662Z,49.51
2017-05-20T03:17:07.611Z,49.6
2017-05-20T03:18:17.248Z,49.51
2017-05-20T03:19:27.199Z,49.51
2017-05-20T03:20:36.531Z,49.22
2017-05-20T03:21:46.171Z,49.41
2017-05-20T03:22:56.440Z,49.51
2017-05-20T03:24:05.757Z,49.02
2017-05-20T03:25:16.043Z,49.7
2017-05-20T03:26:26.307Z,49.6
2017-05-20T03:27:35.949Z,49.22
2017-05-20T03:28:45.901Z,49.41
2017-05-20T03:29:55.882Z,49.19
2017-05-20T03:31:06.152Z,49.12
2017-05-20T03:32:16.421Z,49.12
2017-05-20T03:33:26.061Z,49.1
2017-05-20T03:34:36.332Z,49.22
2017-05-20T03:35:46.604Z,49.22
2017-05-20T03:36:56.557Z,49.99
2017-05-20T03:38:05.251Z,49.02
2017-05-20T03:39:14.891Z,49.7
2017-05-20T03:40:25.168Z,49.32
2017-05-20T03:41:35.123Z,49.12
2017-05-20T03:42:45.074Z,48.93
2017-05-20T03:43:55.352Z,49.48
2017-05-20T03:45:04.993Z,49.1
2017-05-20T03:46:14.631Z,49.1
2017-05-20T03:47:24.898Z,49.12
2017-05-20T03:48:34.854Z,49.02
2017-05-20T03:49:44.810Z,49.6
2017-05-20T03:50:55.081Z,49.02
2017-05-20T03:52:05.345Z,49.51
2017-05-20T03:53:15.296Z,49.22
2017-05-20T03:54:24.946Z,49.12
2017-05-20T03:55:35.222Z,49.41
2017-05-20T03:56:45.494Z,49.22
2017-05-20T03:57:55.771Z,49.22
2017-05-20T03:59:05.119Z,49.6
2017-05-20T04:00:15.074Z,49.51
2017-05-20T04:01:25.340Z,49.19
2017-05-20T04:02:35.292Z,49.58
2017-05-20T04:03:44.936Z,49.19
2017-05-20T04:04:54.899Z,49.22
2017-05-20T04:06:04.859Z,49.19
2017-05-20T04:07:14.810Z,49.02
2017-05-20T04:08:24.443Z,49.22
2017-05-20T04:09:34.403Z,49.29
2017-05-20T04:10:44.360Z,49.12
2017-05-20T04:11:54.314Z,49.1
2017-05-20T04:13:04.579Z,49.22
2017-05-20T04:14:14.538Z,49.12
2017-05-20T04:15:23.863Z,49.58
2017-05-20T04:16:34.129Z,49.48
2017-05-20T04:17:43.769Z,48.71
2017-05-20T04:18:54.043Z,48.71
2017-05-20T04:20:03.993Z,49.51
2017-05-20T04:21:13.646Z,48.83
2017-05-20T04:22:23.595Z,48.71
2017-05-20T04:23:33.858Z,48.52
2017-05-20T04:24:43.817Z,48.52
2017-05-20T04:25:53.779Z,49.29
2017-05-20T04:27:03.728Z,48.61
2017-05-20T04:28:13.374Z,48.71
2017-05-20T04:29:23.329Z,48.42
2017-05-20T04:30:33.600Z,48.52
2017-05-20T04:31:43.868Z,48.44
2017-05-20T04:32:54.130Z,48.42
2017-05-20T04:34:04.402Z,48.81
2017-05-20T04:35:14.040Z,48.81
2017-05-20T04:36:24.312Z,48.71
2017-05-20T04:37:34.266Z,48.33
2017-05-20T04:38:43.905Z,48.52
2017-05-20T04:39:53.545Z,48.42
2017-05-20T04:41:03.497Z,48.9
2017-05-20T04:42:13.450Z,48.61
2017-05-20T04:43:23.404Z,48.9
2017-05-20T04:44:33.703Z,48.52
2017-05-20T04:45:43.971Z,49
2017-05-20T04:46:53.923Z,48.52
2017-05-20T04:48:03.561Z,48.52
2017-05-20T04:49:13.515Z,48.81
2017-05-20T04:50:23.468Z,48.42
2017-05-20T04:51:33.763Z,48.93
2017-05-20T04:52:43.407Z,48.54
2017-05-20T04:53:53.046Z,48.52
2017-05-20T04:55:03.007Z,48.61
2017-05-20T04:56:13.015Z,48.44
2017-05-20T04:57:23.277Z,48.42
2017-05-20T04:58:33.235Z,48.93
2017-05-20T04:59:42.910Z,48.42
2017-05-20T05:00:53.182Z,48.93
2017-05-20T05:02:02.818Z,48.33
2017-05-20T05:03:12.148Z,48.71
2017-05-20T05:04:21.794Z,48.52
2017-05-20T05:05:32.066Z,48.93
2017-05-20T05:06:42.014Z,48.9
2017-05-20T05:07:52.280Z,48.81
2017-05-20T05:09:02.232Z,48.61
2017-05-20T05:10:12.500Z,48.61
2017-05-20T05:11:22.765Z,48.61
2017-05-20T05:12:32.400Z,48.81
2017-05-20T05:13:42.036Z,48.71
2017-05-20T05:14:51.989Z,48.52
2017-05-20T05:16:02.263Z,48.81
2017-05-20T05:17:12.223Z,48.61
2017-05-20T05:18:22.494Z,48.42
2017-05-20T05:19:32.768Z,48.42
2017-05-20T05:20:42.407Z,48.33
2017-05-20T05:21:52.044Z,48.9
2017-05-20T05:23:01.991Z,48.71
2017-05-20T05:24:11.940Z,48.81
2017-05-20T05:25:21.259Z,48.52
2017-05-20T05:26:31.205Z,48.61
2017-05-20T05:27:41.485Z,49
2017-05-20T05:28:51.120Z,48.42
2017-05-20T05:30:01.383Z,48.42
2017-05-20T05:31:11.021Z,48.42
2017-05-20T05:32:20.996Z,48.71
2017-05-20T05:33:30.967Z,48.71
2017-05-20T05:34:41.233Z,48.42
2017-05-20T05:35:51.503Z,48.33
2017-05-20T05:37:01.456Z,48.33
2017-05-20T05:38:11.097Z,48.13
2017-05-20T05:39:21.363Z,48.13
2017-05-20T05:40:31.321Z,48.33
2017-05-20T05:41:41.274Z,48.42
2017-05-20T05:42:51.221Z,48.61
2017-05-20T05:44:01.515Z,48.71
2017-05-20T05:45:11.469Z,48.52
2017-05-20T05:46:21.105Z,48.52
2017-05-20T05:47:31.051Z,48.44
2017-05-20T05:48:40.700Z,48.42
2017-05-20T05:49:50.650Z,48.23
2017-05-20T05:51:00.605Z,48.23
2017-05-20T05:52:10.558Z,48.42
2017-05-20T05:53:19.562Z,48.33
2017-05-20T05:54:29.517Z,48.33
2017-05-20T05:55:39.793Z,48.13
2017-05-20T05:56:49.434Z,48.13
2017-05-20T05:57:59.702Z,48.13
2017-05-20T05:59:09.973Z,48.33
2017-05-20T06:00:19.679Z,48.52
2017-05-20T06:01:29.635Z,48.33
2017-05-20T06:02:39.268Z,48.52
2017-05-20T06:03:48.911Z,48.42
2017-05-20T06:04:59.175Z,48.03
2017-05-20T06:06:08.817Z,48.52
2017-05-20T06:07:18.143Z,48.03
2017-05-20T06:08:27.777Z,47.94
2017-05-20T06:09:37.731Z,47.75
2017-05-20T06:10:47.108Z,47.85
2017-05-20T06:11:57.062Z,47.65
2017-05-20T06:13:07.026Z,47.94
2017-05-20T06:14:16.982Z,47.65
2017-05-20T06:15:26.624Z,47.27
2017-05-20T06:16:36.890Z,47.27
2017-05-20T06:17:46.532Z,47.45
2017-05-20T06:18:55.859Z,47.45
2017-05-20T06:20:05.817Z,47.36
2017-05-20T06:21:15.772Z,47.55
2017-05-20T06:22:25.412Z,47.27
2017-05-20T06:23:35.681Z,47.45
2017-05-20T06:24:45.951Z,47.27
2017-05-20T06:25:55.896Z,47.45
2017-05-20T06:27:05.843Z,47.17
2017-05-20T06:28:15.482Z,47.55
2017-05-20T06:29:25.435Z,47.27
2017-05-20T06:30:35.390Z,47.17
2017-05-20T06:31:45.349Z,47.75
2017-05-20T06:32:54.991Z,47.36
2017-05-20T06:34:05.256Z,47.45
2017-05-20T06:35:15.532Z,47.17
2017-05-20T06:36:25.483Z,47.36
2017-05-20T06:37:35.748Z,47.36
2017-05-20T06:38:46.015Z,47.17
2017-05-20T06:39:55.648Z,47.45
2017-05-20T06:41:05.916Z,46.78
2017-05-20T06:42:15.553Z,47.36
2017-05-20T06:43:25.509Z,46.78
2017-05-20T06:44:35.782Z,46.78
2017-05-20T06:45:45.423Z,46.78
2017-05-20T06:46:55.373Z,46.49
2017-05-20T06:48:04.699Z,46.69
2017-05-20T06:49:14.349Z,46.59
2017-05-20T06:50:24.313Z,46.49
2017-05-20T06:51:34.266Z,46.69
2017-05-20T06:52:43.907Z,46.01
2017-05-20T06:53:53.861Z,47.07
2017-05-20T06:55:03.811Z,46.49
2017-05-20T06:56:13.445Z,46.11
2017-05-20T06:57:23.727Z,46.01
2017-05-20T06:58:33.995Z,46.88
2017-05-20T06:59:43.645Z,46.2
2017-05-20T07:00:53.596Z,46.49
2017-05-20T07:02:03.879Z,46.78
2017-05-20T07:03:13.832Z,46.88
2017-05-20T07:04:23.470Z,46.88
2017-05-20T07:05:32.797Z,46.97
2017-05-20T07:06:42.753Z,46.78
2017-05-20T07:07:53.033Z,46.78
2017-05-20T07:09:03.294Z,46.69
2017-05-20T07:10:13.243Z,46.4
2017-05-20T07:11:23.510Z,46.59
2017-05-20T07:12:33.145Z,46.49
2017-05-20T07:13:43.419Z,46.69
2017-05-20T07:14:53.695Z,46.49
2017-05-20T07:16:03.966Z,46.59
2017-05-20T07:17:13.292Z,46.78
2017-05-20T07:18:23.570Z,46.4
2017-05-20T07:19:33.210Z,46.97
2017-05-20T07:20:43.156Z,46.88
2017-05-20T07:21:52.796Z,46.97
2017-05-20T07:23:02.435Z,47.29
2017-05-20T07:24:12.075Z,46.81
2017-05-20T07:25:22.344Z,46.9
2017-05-20T07:26:32.619Z,46.71
2017-05-20T07:27:42.574Z,46.23
2017-05-20T07:28:52.843Z,46.69
2017-05-20T07:30:03.105Z,46.97
2017-05-20T07:31:12.750Z,46.59
2017-05-20T07:32:23.018Z,47.48
2017-05-20T07:33:32.981Z,44.46
2017-05-20T07:34:43.257Z,43.79
2017-05-20T07:35:53.208Z,44.23
2017-05-20T07:37:03.465Z,43.75
2017-05-20T07:38:13.109Z,43.55
2017-05-20T07:39:23.055Z,44.42
2017-05-20T07:40:33.322Z,45.1
2017-05-20T07:41:42.649Z,44.9
2017-05-20T07:42:52.601Z,45.21
2017-05-20T07:44:02.553Z,45.12
2017-05-20T07:45:12.190Z,46.18
2017-05-20T07:46:22.141Z,45.92
2017-05-20T07:47:32.090Z,45.82
2017-05-20T07:48:42.049Z,46.3
2017-05-20T07:49:52.003Z,46.01
2017-05-20T07:51:02.270Z,46.01
2017-05-20T07:52:11.910Z,46.49
2017-05-20T07:53:21.867Z,46.49
2017-05-20T07:54:31.826Z,46.97
2017-05-20T07:55:42.084Z,46.11
2017-05-20T07:56:52.034Z,46.11
2017-05-20T07:58:02.301Z,46.69
2017-05-20T07:59:12.257Z,46.88
2017-05-20T08:00:22.219Z,46.4
2017-05-20T08:01:32.175Z,46.69
2017-05-20T08:02:42.126Z,47.07
2017-05-20T08:03:51.775Z,46.69
2017-05-20T08:05:01.732Z,47
2017-05-20T08:06:11.368Z,46.81
2017-05-20T08:07:21.002Z,46.59
2017-05-20T08:08:31.276Z,46.81
2017-05-20T08:09:41.235Z,46.81
2017-05-20T08:10:50.559Z,47
2017-05-20T08:12:00.514Z,46.59
2017-05-20T08:13:10.773Z,47
2017-05-20T08:14:20.432Z,46.71
2017-05-20T08:15:30.705Z,47.09
2017-05-20T08:16:40.969Z,46.51
2017-05-20T08:17:51.230Z,46.61
2017-05-20T08:19:00.864Z,47.19
2017-05-20T08:20:10.824Z,47.09
2017-05-20T08:21:20.460Z,46.81
2017-05-20T08:22:30.722Z,47
2017-05-20T08:23:40.673Z,47.29
2017-05-20T08:24:50.002Z,46.71
2017-05-20T08:26:00.268Z,46.71
2017-05-20T08:27:09.590Z,47
2017-05-20T08:28:19.542Z,47.09
2017-05-20T08:29:29.181Z,47.38
2017-05-20T08:30:39.126Z,47.19
2017-05-20T08:31:48.761Z,47.48
2017-05-20T08:32:59.029Z,47.58
2017-05-20T08:34:08.675Z,47.77
2017-05-20T08:35:18.943Z,47.48
2017-05-20T08:36:28.578Z,47.09
2017-05-20T08:37:38.846Z,46.9
2017-05-20T08:38:48.495Z,47.38
2017-05-20T08:39:58.762Z,47.77
2017-05-20T08:41:09.025Z,47.19
2017-05-20T08:42:18.980Z,47.19
2017-05-20T08:43:28.624Z,47.58
2017-05-20T08:44:38.575Z,47.19
2017-05-20T08:45:48.216Z,47.67
2017-05-20T08:46:58.164Z,47.38
2017-05-20T08:48:08.431Z,46.9
2017-05-20T08:49:18.387Z,47.58
2017-05-20T08:50:28.655Z,47.48
2017-05-20T08:51:38.294Z,47.19
2017-05-20T08:52:47.923Z,46.73
2017-05-20T08:53:57.886Z,46.9
2017-05-20T08:55:07.842Z,46.71
2017-05-20T08:56:18.113Z,46.61
2017-05-20T08:57:28.389Z,47.77
2017-05-20T08:58:38.659Z,47.09
2017-05-20T08:59:48.298Z,47.58
2017-05-20T09:00:58.254Z,47.58
2017-05-20T09:02:07.578Z,47.67
2017-05-20T09:03:17.534Z,47.38
2017-05-20T09:04:27.193Z,47.67
2017-05-20T09:05:36.828Z,47.48
2017-05-20T09:06:45.833Z,47.67
2017-05-20T09:07:56.097Z,47.58
2017-05-20T09:09:06.048Z,47.38
2017-05-20T09:10:15.687Z,47.67
2017-05-20T09:11:25.955Z,47.19
2017-05-20T09:12:35.908Z,47.38
2017-05-20T09:13:45.261Z,47.29
2017-05-20T09:14:54.904Z,47.38
2017-05-20T09:16:04.853Z,47.58
2017-05-20T09:17:15.117Z,47.58
2017-05-20T09:18:24.439Z,47.58
2017-05-20T09:19:34.714Z,47.77
2017-05-20T09:20:44.980Z,47.58
2017-05-20T09:21:54.619Z,47.38
2017-05-20T09:23:04.256Z,47.67
2017-05-20T09:24:14.215Z,47.58
2017-05-20T09:25:24.485Z,47.58
2017-05-20T09:26:34.435Z,47.77
2017-05-20T09:27:44.392Z,47.38
2017-05-20T09:28:54.344Z,47.38
2017-05-20T09:30:03.669Z,47.58
2017-05-20T09:31:13.305Z,47.48
2017-05-20T09:32:23.295Z,47.58
2017-05-20T09:33:32.933Z,47.48
2017-05-20T09:34:43.205Z,47.77
2017-05-20T09:35:53.479Z,47.67
2017-05-20T09:37:02.800Z,47.58
2017-05-20T09:38:12.754Z,47.58
2017-05-20T09:39:23.025Z,47.96
2017-05-20T09:40:32.978Z,47.48
2017-05-20T09:41:42.619Z,47.58
2017-05-20T09:42:52.265Z,47.48
2017-05-20T09:44:02.530Z,47.48
2017-05-20T09:45:11.853Z,48.06
2017-05-20T09:46:21.486Z,47.19
2017-05-20T09:47:31.465Z,47.87
2017-05-20T09:48:41.417Z,47.29
2017-05-20T09:49:51.051Z,47.67
2017-05-20T09:51:01.003Z,47.77
2017-05-20T09:52:11.270Z,47.77
2017-05-20T09:53:20.907Z,47.77
2017-05-20T09:54:31.180Z,47.87
2017-05-20T09:55:41.130Z,47.67
2017-05-20T09:56:50.767Z,47.67
2017-05-20T09:58:01.036Z,48.06
2017-05-20T09:59:11.300Z,47.67
2017-05-20T10:00:21.574Z,48.25
2017-05-20T10:01:31.540Z,47.67
2017-05-20T10:02:41.176Z,47.77
2017-05-20T10:03:50.814Z,47.67
2017-05-20T10:05:00.777Z,48.06
2017-05-20T10:06:10.724Z,48.06
2017-05-20T10:07:20.677Z,47.77
2017-05-20T10:08:30.941Z,47.29
2017-05-20T10:09:41.206Z,47.67
2017-05-20T10:10:51.162Z,47.58
2017-05-20T10:12:00.483Z,47.58
2017-05-20T10:13:10.754Z,47.67
2017-05-20T10:14:19.764Z,47.58
2017-05-20T10:15:29.721Z,47.19
2017-05-20T10:16:39.996Z,47.58
2017-05-20T10:17:49.635Z,47.48
2017-05-20T10:18:59.593Z,47.67
2017-05-20T10:20:09.232Z,47.77
2017-05-20T10:21:19.497Z,47.09
2017-05-20T10:22:29.773Z,47.77
2017-05-20T10:23:39.414Z,47.29
2017-05-20T10:24:49.061Z,47.48
2017-05-20T10:25:59.332Z,47.48
2017-05-20T10:27:09.290Z,47.87
2017-05-20T10:28:19.609Z,47.77
2017-05-20T10:29:29.571Z,47.77
2017-05-20T10:30:39.209Z,47.77
2017-05-20T10:31:49.477Z,48.06
2017-05-20T10:32:59.427Z,47.77
2017-05-20T10:34:09.387Z,47.67
2017-05-20T10:35:19.647Z,47.58
2017-05-20T10:36:29.297Z,47.58
2017-05-20T10:37:39.580Z,47.58
2017-05-20T10:38:49.532Z,47.48
2017-05-20T10:39:58.233Z,47.29
2017-05-20T10:41:08.185Z,48.18
2017-05-20T10:42:18.451Z,47.96
2017-05-20T10:43:28.720Z,48.06
2017-05-20T10:44:38.681Z,47.58
2017-05-20T10:45:48.956Z,48.25
2017-05-20T10:46:58.914Z,47.7
2017-05-20T10:48:08.240Z,47.96
2017-05-20T10:49:17.882Z,48.08
2017-05-20T10:50:27.844Z,47.7
2017-05-20T10:51:37.164Z,47.7
2017-05-20T10:52:46.490Z,47.5
2017-05-20T10:53:56.447Z,47.41
2017-05-20T10:55:06.717Z,48.28
2017-05-20T10:56:16.350Z,47.6
2017-05-20T10:57:26.693Z,47.7
2017-05-20T10:58:36.638Z,47.8
2017-05-20T10:59:45.656Z,47.5
2017-05-20T11:00:55.297Z,48.08
2017-05-20T11:02:05.562Z,47.7
2017-05-20T11:03:15.526Z,47.7
2017-05-20T11:04:25.489Z,47.5
2017-05-20T11:05:35.132Z,47.5
2017-05-20T11:06:44.771Z,47.5
2017-05-20T11:07:54.413Z,48.08
2017-05-20T11:09:04.054Z,47.7
2017-05-20T11:10:14.319Z,47.7
2017-05-20T11:11:23.959Z,47.41
2017-05-20T11:12:34.222Z,47.41
2017-05-20T11:13:44.190Z,47.89
2017-05-20T11:14:53.830Z,47.5
2017-05-20T11:16:03.782Z,47.41
2017-05-20T11:17:13.105Z,47.5
2017-05-20T11:18:23.372Z,47.31
2017-05-20T11:19:33.017Z,46.51
2017-05-20T11:20:42.030Z,46.33
2017-05-20T11:21:51.986Z,46.42
2017-05-20T11:23:01.626Z,47
2017-05-20T11:24:11.286Z,47
2017-05-20T11:25:21.249Z,47.48
2017-05-20T11:26:31.198Z,47.22
2017-05-20T11:27:41.469Z,47.19
2017-05-20T11:28:50.789Z,47.19
2017-05-20T11:30:00.739Z,47.12
2017-05-20T11:31:11.002Z,47.58
2017-05-20T11:32:20.952Z,47.29
2017-05-20T11:33:30.965Z,47.6
2017-05-20T11:34:41.235Z,47.48
2017-05-20T11:35:51.315Z,47.31
2017-05-20T11:37:01.668Z,47.5
2017-05-20T11:38:11.995Z,47.8
2017-05-20T11:39:21.630Z,47.6
2017-05-20T11:40:31.585Z,48.18
2017-05-20T11:41:41.529Z,47.58
2017-05-20T11:42:51.479Z,47.31
2017-05-20T11:44:01.118Z,47.7
2017-05-20T11:45:11.075Z,47.5
2017-05-20T11:46:21.338Z,47.31
2017-05-20T11:47:30.975Z,47.5
2017-05-20T11:48:41.239Z,47.31
2017-05-20T11:49:51.207Z,47.8
2017-05-20T11:51:01.159Z,47.7
2017-05-20T11:52:11.424Z,48.28
2017-05-20T11:53:21.381Z,48.08
2017-05-20T11:54:31.342Z,47.7
2017-05-20T11:55:41.609Z,48.08
2017-05-20T11:56:51.246Z,47.89
2017-05-20T11:58:01.217Z,47.99
2017-05-20T11:59:11.229Z,48.08
2017-05-20T12:00:21.196Z,47.89
2017-05-20T12:01:31.464Z,47.6
2017-05-20T12:02:41.729Z,48.28
2017-05-20T12:03:51.681Z,48.57
2017-05-20T12:05:01.012Z,47.99
2017-05-20T12:06:10.965Z,48.37
2017-05-20T12:07:20.914Z,48.37
2017-05-20T12:08:31.184Z,48.18
2017-05-20T12:09:41.457Z,48.37
2017-05-20T12:10:51.724Z,48.37
2017-05-20T12:12:01.360Z,48.76
2017-05-20T12:13:11.312Z,48.47
2017-05-20T12:14:21.274Z,48.66
2017-05-20T12:15:31.554Z,48.76
2017-05-20T12:16:41.820Z,48.57
2017-05-20T12:17:51.775Z,49.15
2017-05-20T12:19:01.728Z,49.44
2017-05-20T12:20:11.686Z,49.24
2017-05-20T12:21:21.962Z,48.86
2017-05-20T12:22:32.241Z,49.15
2017-05-20T12:23:41.568Z,49.44
2017-05-20T12:24:51.892Z,49.63
2017-05-20T12:26:01.856Z,49.44
2017-05-20T12:27:11.820Z,49.44
2017-05-20T12:28:21.467Z,49.53
2017-05-20T12:29:31.427Z,49.73
2017-05-20T12:30:41.384Z,49.63
2017-05-20T12:31:51.331Z,49.63
2017-05-20T12:33:01.284Z,49.53
2017-05-20T12:34:10.988Z,49.34
2017-05-20T12:35:20.946Z,49.24
2017-05-20T12:36:31.210Z,49.15
2017-05-20T12:37:40.850Z,49.53
2017-05-20T12:38:50.493Z,49.05
2017-05-20T12:40:00.135Z,48.66
2017-05-20T12:41:10.100Z,48.66
2017-05-20T12:42:20.366Z,48.57
2017-05-20T12:43:30.342Z,48.57
2017-05-20T12:44:40.611Z,48.95
2017-05-20T12:45:50.561Z,49.24
2017-05-20T12:47:00.826Z,48.95
2017-05-20T12:48:11.094Z,48.66
2017-05-20T12:49:20.735Z,48.95
2017-05-20T12:50:30.376Z,49.05
2017-05-20T12:51:40.327Z,49.15
2017-05-20T12:52:50.275Z,48.76
2017-05-20T12:53:59.602Z,48.66
2017-05-20T12:55:09.242Z,48.47
2017-05-20T12:56:18.571Z,48.76
2017-05-20T12:57:28.520Z,48.57
2017-05-20T12:58:38.787Z,48.57
2017-05-20T12:59:48.748Z,48.66
2017-05-20T13:00:59.017Z,49.05
2017-05-20T13:02:08.967Z,48.47
2017-05-20T13:03:18.923Z,48.76
2017-05-20T13:04:28.572Z,48.86
2017-05-20T13:05:38.526Z,48.86
2017-05-20T13:06:48.484Z,48.76
2017-05-20T13:07:58.754Z,48.76
2017-05-20T13:09:08.387Z,49.24
2017-05-20T13:10:18.028Z,49.15
2017-05-20T13:11:27.038Z,49.24
2017-05-20T13:12:36.991Z,49.15
2017-05-20T13:13:47.265Z,49.05
2017-05-20T13:14:57.541Z,48.95
2017-05-20T13:16:07.497Z,49.15
2017-05-20T13:17:17.136Z,49.63
2017-05-20T13:18:27.403Z,49.24
2017-05-20T13:19:37.681Z,49.53
2017-05-20T13:20:47.639Z,48.76
2017-05-20T13:21:57.590Z,49.15
2017-05-20T13:23:07.223Z,49.15
2017-05-20T13:24:16.860Z,49.24
2017-05-20T13:25:27.137Z,49.15
2017-05-20T13:26:37.474Z,49.34
2017-05-20T13:27:47.436Z,49.24
2017-05-20T13:28:57.718Z,49.05
2017-05-20T13:30:07.983Z,49.24
2017-05-20T13:31:17.940Z,49.15
2017-05-20T13:32:27.890Z,48.95
2017-05-20T13:33:38.157Z,49.24
2017-05-20T13:34:48.419Z,49.15
2017-05-20T13:35:58.685Z,49.15
2017-05-20T13:37:08.324Z,49.15
2017-05-20T13:38:18.274Z,49.05
2017-05-20T13:39:28.231Z,49.24
2017-05-20T13:40:38.557Z,49.53
2017-05-20T13:41:48.188Z,49.05
2017-05-20T13:42:57.195Z,49.44
2017-05-20T13:44:07.518Z,49.34
2017-05-20T13:45:17.786Z,49.24
2017-05-20T13:46:27.736Z,49.82
2017-05-20T13:47:38.006Z,50.21
2017-05-20T13:48:47.965Z,50.21
2017-05-20T13:49:58.236Z,50.31
2017-05-20T13:51:08.505Z,49.73
2017-05-20T13:52:18.458Z,50.21
2017-05-20T13:53:28.741Z,49.92
2017-05-20T13:54:38.695Z,50.01
2017-05-20T13:55:48.640Z,50.5
2017-05-20T13:56:58.278Z,50.21
2017-05-20T13:58:07.599Z,49.73
2017-05-20T13:59:17.559Z,49.44
2017-05-20T14:00:26.893Z,50.11
2017-05-20T14:01:36.583Z,49.44
2017-05-20T14:02:46.532Z,49.63
2017-05-20T14:03:56.485Z,49.34
2017-05-20T14:05:06.440Z,49.44
2017-05-20T14:06:16.091Z,49.73
2017-05-20T14:07:25.731Z,49.73
2017-05-20T14:08:35.373Z,49.63
2017-05-20T14:09:45.322Z,49.34
2017-05-20T14:10:55.274Z,49.53
2017-05-20T14:12:04.934Z,49.15
2017-05-20T14:13:14.897Z,49.53
2017-05-20T14:14:24.849Z,49.63
2017-05-20T14:15:35.128Z,49.24
2017-05-20T14:16:45.081Z,49.82
2017-05-20T14:17:55.352Z,49.24
2017-05-20T14:19:04.682Z,49.63
2017-05-20T14:20:14.628Z,49.15
2017-05-20T14:21:24.577Z,49.24
2017-05-20T14:22:34.847Z,49.05
2017-05-20T14:23:44.489Z,49.24
2017-05-20T14:24:54.452Z,49.73
2017-05-20T14:26:03.776Z,49.73
2017-05-20T14:27:14.052Z,49.24
2017-05-20T14:28:24.318Z,49.24
2017-05-20T14:29:34.273Z,49.24
2017-05-20T14:30:44.301Z,49.24
2017-05-20T14:31:54.271Z,49.73
2017-05-20T14:33:03.593Z,49.15
2017-05-20T14:34:13.545Z,49.53
2017-05-20T14:35:23.503Z,49.24
2017-05-20T14:36:33.452Z,49.34
2017-05-20T14:37:43.082Z,49.24
2017-05-20T14:38:53.033Z,49.05
2017-05-20T14:40:03.299Z,49.44
2017-05-20T14:41:12.939Z,49.44
2017-05-20T14:42:22.893Z,49.53
2017-05-20T14:43:32.850Z,49.63
2017-05-20T14:44:42.180Z,49.24
2017-05-20T14:45:52.134Z,49.34
2017-05-20T14:47:01.456Z,49.53
2017-05-20T14:48:11.096Z,49.34
2017-05-20T14:49:21.059Z,49.63
2017-05-20T14:50:30.703Z,49.24
2017-05-20T14:51:40.655Z,49.63
2017-05-20T14:52:50.926Z,49.53
2017-05-20T14:54:00.568Z,49.53
2017-05-20T14:55:10.521Z,49.44
2017-05-20T14:56:20.472Z,49.44
2017-05-20T14:57:29.807Z,49.24
2017-05-20T14:58:39.452Z,49.34
2017-05-20T14:59:49.408Z,49.53
2017-05-20T15:00:59.366Z,49.53
2017-05-20T15:02:08.379Z,49.44
2017-05-20T15:03:18.339Z,49.63